createdAt,value
2023-01-31T00:01:46.345Z,5.06
2023-01-31T00:04:14.307Z,4.89
2023-01-31T00:06:43.526Z,5.09
2023-01-31T00:09:14.169Z,5.13
2023-01-31T00:11:43.224Z,5.32
2023-01-31T00:14:24.656Z,5.10
2023-01-31T00:17:01.228Z,4.88
2023-01-31T00:19:29.049Z,4.88
2023-01-31T00:22:01.153Z,4.77
2023-01-31T00:24:47.747Z,2.02
2023-01-31T00:27:19.258Z,5.13
2023-01-31T00:29:56.155Z,5.03
2023-01-31T00:32:26.847Z,4.45
2023-01-31T00:34:54.971Z,4.98
2023-01-31T00:37:25.079Z,4.94
2023-01-31T00:39:53.083Z,4.63
2023-01-31T00:42:24.017Z,4.47
2023-01-31T00:44:57.412Z,4.91
2023-01-31T00:47:28.315Z,4.75
2023-01-31T00:49:59.103Z,4.64
2023-01-31T00:52:27.061Z,4.60
2023-01-31T00:54:54.859Z,4.76
2023-01-31T00:57:25.025Z,5.01
2023-01-31T01:00:07.549Z,4.44
2023-01-31T01:02:37.740Z,4.37
2023-01-31T01:05:08.559Z,4.49
2023-01-31T01:07:42.057Z,4.24
2023-01-31T01:10:13.298Z,4.43
2023-01-31T01:12:41.218Z,4.68
2023-01-31T01:15:14.159Z,4.54
2023-01-31T01:17:46.009Z,4.65
2023-01-31T01:20:16.854Z,4.85
2023-01-31T01:22:44.725Z,4.34
2023-01-31T01:25:12.553Z,4.23
2023-01-31T01:27:40.403Z,4.07
2023-01-31T01:30:12.212Z,4.23
2023-01-31T01:32:40.455Z,4.52
2023-01-31T01:35:12.465Z,3.88
2023-01-31T01:37:42.921Z,3.96
2023-01-31T01:40:11.815Z,3.69
2023-01-31T01:42:44.853Z,4.21
2023-01-31T01:45:18.318Z,4.26
2023-01-31T01:47:51.979Z,4.17
2023-01-31T01:50:26.086Z,4.13
2023-01-31T01:52:59.290Z,3.88
2023-01-31T01:55:31.729Z,3.84
2023-01-31T01:58:03.238Z,3.14
2023-01-31T02:00:36.104Z,4.06
2023-01-31T02:03:06.676Z,4.20
2023-01-31T02:05:37.576Z,4.20
2023-01-31T02:08:10.062Z,4.07
2023-01-31T02:10:44.769Z,4.41
2023-01-31T02:13:14.110Z,4.90
2023-01-31T02:15:46.611Z,4.23
2023-01-31T02:18:19.291Z,4.20
2023-01-31T02:21:29.375Z,4.78
2023-01-31T02:24:31.416Z,4.66
2023-01-31T02:27:35.022Z,4.56
2023-01-31T02:30:33.941Z,4.91
2023-01-31T02:33:20.187Z,5.23
2023-01-31T02:35:54.317Z,4.94
2023-01-31T02:38:39.745Z,4.75
2023-01-31T02:41:15.454Z,4.84
2023-01-31T02:44:00.848Z,5.19
2023-01-31T02:46:38.260Z,5.71
2023-01-31T02:49:34.462Z,5.60
2023-01-31T02:52:17.217Z,5.28
2023-01-31T02:55:07.077Z,5.12
2023-01-31T02:57:37.550Z,5.32
2023-01-31T03:00:11.483Z,5.47
2023-01-31T03:02:44.046Z,5.41
2023-01-31T03:05:17.520Z,5.28
2023-01-31T03:07:50.278Z,5.55
2023-01-31T03:10:31.565Z,5.83
2023-01-31T03:13:08.235Z,5.85
2023-01-31T03:16:11.664Z,5.62
2023-01-31T03:18:45.976Z,5.68
2023-01-31T03:21:18.496Z,6.05
2023-01-31T03:23:52.939Z,6.24
2023-01-31T03:26:21.833Z,6.03
2023-01-31T03:28:57.217Z,5.83
2023-01-31T03:31:26.671Z,6.06
2023-01-31T03:33:57.998Z,6.21
2023-01-31T03:36:37.576Z,6.48
2023-01-31T03:39:20.506Z,5.97
2023-01-31T03:42:02.322Z,6.40
2023-01-31T03:44:38.429Z,6.32
2023-01-31T03:47:10.639Z,6.41
2023-01-31T03:49:40.279Z,6.46
2023-01-31T03:52:09.988Z,6.76
2023-01-31T03:54:43.406Z,6.55
2023-01-31T03:57:22.521Z,6.66
2023-01-31T03:59:54.553Z,6.88
2023-01-31T04:02:23.960Z,6.92
2023-01-31T04:04:56.127Z,6.71
2023-01-31T04:07:26.211Z,6.58
2023-01-31T04:09:54.034Z,6.51
2023-01-31T04:12:21.866Z,6.75
2023-01-31T04:14:50.091Z,6.64
2023-01-31T04:17:18.310Z,6.16
2023-01-31T04:19:46.485Z,6.87
2023-01-31T04:22:14.361Z,6.67
2023-01-31T04:24:43.912Z,5.94
2023-01-31T04:27:12.394Z,5.91
2023-01-31T04:29:44.538Z,6.10
2023-01-31T04:32:14.942Z,6.62
2023-01-31T04:34:44.937Z,6.62
2023-01-31T04:37:12.884Z,7.30
2023-01-31T04:39:44.909Z,7.04
2023-01-31T04:42:18.260Z,7.04
2023-01-31T04:44:49.334Z,7.35
2023-01-31T04:47:17.299Z,6.90
2023-01-31T04:49:50.015Z,6.82
2023-01-31T04:52:20.830Z,6.89
2023-01-31T04:54:54.925Z,7.05
2023-01-31T04:57:22.834Z,7.31
2023-01-31T04:59:52.296Z,7.36
2023-01-31T05:02:20.189Z,7.22
2023-01-31T05:04:53.300Z,7.18
2023-01-31T05:07:21.447Z,7.29
2023-01-31T05:09:55.294Z,7.14
2023-01-31T05:12:23.477Z,6.88
2023-01-31T05:14:53.480Z,6.99
2023-01-31T05:17:26.235Z,6.79
2023-01-31T05:19:54.076Z,7.05
2023-01-31T05:22:24.728Z,4.98
2023-01-31T05:24:53.876Z,6.83
2023-01-31T05:27:21.839Z,7.07
2023-01-31T05:29:53.408Z,7.29
2023-01-31T05:32:21.792Z,7.08
2023-01-31T05:34:49.560Z,7.03
2023-01-31T05:37:20.759Z,6.86
2023-01-31T05:39:48.955Z,6.73
2023-01-31T05:42:26.005Z,6.20
2023-01-31T05:44:55.736Z,6.17
2023-01-31T05:47:26.699Z,6.58
2023-01-31T05:49:56.512Z,6.53
2023-01-31T05:52:26.758Z,6.54
2023-01-31T05:54:58.205Z,6.60
2023-01-31T05:57:33.446Z,6.55
2023-01-31T06:00:02.292Z,6.06
2023-01-31T06:02:31.020Z,5.89
2023-01-31T06:04:59.307Z,6.13
2023-01-31T06:07:27.195Z,6.59
2023-01-31T06:09:55.073Z,6.23
2023-01-31T06:12:28.832Z,6.14
2023-01-31T06:14:56.811Z,5.55
2023-01-31T06:17:28.126Z,5.57
2023-01-31T06:19:57.817Z,5.04
2023-01-31T06:22:25.955Z,4.91
2023-01-31T06:24:54.598Z,4.80
2023-01-31T06:27:22.597Z,5.44
2023-01-31T06:29:53.067Z,5.38
2023-01-31T06:32:20.975Z,5.57
2023-01-31T06:34:48.959Z,5.16
2023-01-31T06:37:17.137Z,5.41
2023-01-31T06:39:45.007Z,5.63
2023-01-31T06:42:16.392Z,5.76
2023-01-31T06:44:44.472Z,5.56
2023-01-31T06:47:14.787Z,5.70
2023-01-31T06:49:45.463Z,5.38
2023-01-31T06:52:15.424Z,5.24
2023-01-31T06:54:43.324Z,4.61
2023-01-31T06:57:12.910Z,4.75
2023-01-31T06:59:40.850Z,4.85
2023-01-31T07:02:11.486Z,4.60
2023-01-31T07:04:43.386Z,4.40
2023-01-31T07:07:11.322Z,4.70
2023-01-31T07:09:39.260Z,4.96
2023-01-31T07:12:07.521Z,4.47
2023-01-31T07:14:38.659Z,3.98
2023-01-31T07:17:12.157Z,3.68
2023-01-31T07:19:42.561Z,3.86
2023-01-31T07:22:10.800Z,4.00
2023-01-31T07:24:41.657Z,3.95
2023-01-31T07:27:11.796Z,3.89
2023-01-31T07:29:44.602Z,3.96
2023-01-31T07:32:12.886Z,3.90
2023-01-31T07:34:42.400Z,4.35
2023-01-31T07:37:19.598Z,3.86
2023-01-31T07:39:47.493Z,4.16
2023-01-31T07:42:15.878Z,4.10
2023-01-31T07:44:43.876Z,3.96
2023-01-31T07:47:11.702Z,4.00
2023-01-31T07:49:44.148Z,4.17
2023-01-31T07:52:12.359Z,4.19
2023-01-31T07:54:47.638Z,5.00
2023-01-31T07:57:21.483Z,4.50
2023-01-31T07:59:49.880Z,4.07
2023-01-31T08:02:37.501Z,4.83
2023-01-31T08:05:11.892Z,4.65
2023-01-31T08:07:40.487Z,5.52
2023-01-31T08:10:10.014Z,4.85
2023-01-31T08:12:37.836Z,4.63
2023-01-31T08:15:10.704Z,4.26
2023-01-31T08:17:39.026Z,4.74
2023-01-31T08:20:10.137Z,4.67
2023-01-31T08:22:38.008Z,4.89
2023-01-31T08:25:09.805Z,5.17
2023-01-31T08:27:42.593Z,5.43
2023-01-31T08:30:12.583Z,5.34
2023-01-31T08:32:40.499Z,5.25
2023-01-31T08:35:13.361Z,5.26
2023-01-31T08:37:45.119Z,5.28
2023-01-31T08:40:19.325Z,5.51
2023-01-31T08:42:57.394Z,5.48
2023-01-31T08:45:29.131Z,6.13
2023-01-31T08:47:58.248Z,5.65
2023-01-31T08:50:31.420Z,6.19
2023-01-31T08:53:01.608Z,6.12
2023-01-31T08:55:30.306Z,5.92
2023-01-31T08:58:00.272Z,6.02
2023-01-31T09:00:28.969Z,6.02
2023-01-31T09:03:03.017Z,6.17
2023-01-31T09:05:34.485Z,6.03
2023-01-31T09:08:02.487Z,5.82
2023-01-31T09:10:30.358Z,6.00
2023-01-31T09:13:00.329Z,5.55
2023-01-31T09:15:31.310Z,5.59
2023-01-31T09:17:59.175Z,4.05
2023-01-31T09:20:27.294Z,6.24
2023-01-31T09:22:58.629Z,6.61
2023-01-31T09:25:42.413Z,6.24
2023-01-31T09:28:16.937Z,6.30
2023-01-31T09:30:44.866Z,6.22
2023-01-31T09:33:17.630Z,6.07
2023-01-31T09:35:48.806Z,5.85
2023-01-31T09:38:25.396Z,5.68
2023-01-31T09:40:54.163Z,6.08
2023-01-31T09:43:26.783Z,6.26
2023-01-31T09:45:56.306Z,5.85
2023-01-31T09:48:34.224Z,5.78
2023-01-31T09:51:03.123Z,6.56
2023-01-31T09:53:34.353Z,6.49
2023-01-31T09:56:14.454Z,6.57
2023-01-31T09:58:49.848Z,7.32
2023-01-31T10:01:23.367Z,6.80
2023-01-31T10:04:08.826Z,6.40
2023-01-31T10:06:42.040Z,6.35
2023-01-31T10:09:16.757Z,6.71
2023-01-31T10:11:46.529Z,6.65
2023-01-31T10:14:31.697Z,6.60
2023-01-31T10:17:05.839Z,6.68
2023-01-31T10:19:40.414Z,6.58
2023-01-31T10:22:10.352Z,7.30
2023-01-31T10:24:46.549Z,6.96
2023-01-31T10:27:23.043Z,7.48
2023-01-31T10:29:53.761Z,8.23
2023-01-31T10:32:27.806Z,8.78
2023-01-31T10:34:59.658Z,7.79
2023-01-31T10:37:32.477Z,7.62
2023-01-31T10:40:04.986Z,6.55
2023-01-31T10:42:34.677Z,7.21
2023-01-31T10:45:12.800Z,7.20
2023-01-31T10:47:45.659Z,6.88
2023-01-31T10:50:16.488Z,7.11
2023-01-31T10:52:54.755Z,7.32
2023-01-31T10:55:40.889Z,7.04
2023-01-31T10:58:12.331Z,7.49
2023-01-31T11:00:42.753Z,8.17
2023-01-31T11:03:12.427Z,7.99
2023-01-31T11:05:49.318Z,7.07
2023-01-31T11:08:31.175Z,7.15
2023-01-31T11:11:12.677Z,7.10
2023-01-31T11:14:00.126Z,7.05
2023-01-31T11:16:33.555Z,7.07
2023-01-31T11:19:03.366Z,6.22
2023-01-31T11:21:32.513Z,6.12
2023-01-31T11:24:04.908Z,4.72
2023-01-31T11:26:39.764Z,6.40
2023-01-31T11:29:18.003Z,6.37
2023-01-31T11:31:49.566Z,6.86
2023-01-31T11:34:25.048Z,6.74
2023-01-31T11:36:54.916Z,6.54
2023-01-31T11:39:33.239Z,6.53
2023-01-31T11:42:13.295Z,6.97
2023-01-31T11:44:59.654Z,7.10
2023-01-31T11:47:35.092Z,5.50
2023-01-31T11:50:05.723Z,6.86
2023-01-31T11:52:35.814Z,7.08
2023-01-31T11:55:07.496Z,6.40
2023-01-31T11:57:40.833Z,6.49
2023-01-31T12:00:25.265Z,6.26
2023-01-31T12:03:00.194Z,6.15
2023-01-31T12:05:36.368Z,5.26
2023-01-31T12:08:04.812Z,6.59
2023-01-31T12:10:41.951Z,6.48
2023-01-31T12:13:22.463Z,6.71
2023-01-31T12:15:56.152Z,6.36
2023-01-31T12:18:56.109Z,6.19
2023-01-31T12:21:37.873Z,6.41
2023-01-31T12:24:13.369Z,6.21
2023-01-31T12:26:47.227Z,5.96
2023-01-31T12:29:27.696Z,6.30
2023-01-31T12:32:20.961Z,6.36
2023-01-31T12:35:10.716Z,6.17
2023-01-31T12:37:52.592Z,6.43
2023-01-31T12:40:33.811Z,6.56
2023-01-31T12:43:04.860Z,6.14
2023-01-31T12:45:45.049Z,6.08
2023-01-31T12:48:46.734Z,6.13
2023-01-31T12:51:28.266Z,6.50
2023-01-31T12:54:03.688Z,6.57
2023-01-31T12:56:48.948Z,6.91
2023-01-31T12:59:28.496Z,6.54
2023-01-31T13:02:02.006Z,5.84
2023-01-31T13:04:38.752Z,6.03
2023-01-31T13:07:11.231Z,6.18
2023-01-31T13:09:40.920Z,6.97
2023-01-31T13:12:13.451Z,6.88
2023-01-31T13:14:44.369Z,7.33
2023-01-31T13:17:19.767Z,7.03
2023-01-31T13:19:51.601Z,7.03
2023-01-31T13:22:22.645Z,7.44
2023-01-31T13:24:55.863Z,6.97
2023-01-31T13:27:29.090Z,7.46
2023-01-31T13:29:59.872Z,7.60
2023-01-31T13:32:34.917Z,7.40
2023-01-31T13:35:06.871Z,7.88
2023-01-31T13:37:38.988Z,7.47
2023-01-31T13:40:21.249Z,7.67
2023-01-31T13:42:53.901Z,7.45
2023-01-31T13:45:25.979Z,8.17
2023-01-31T13:48:06.569Z,6.72
2023-01-31T13:50:39.192Z,8.01
2023-01-31T13:53:08.903Z,8.03
2023-01-31T13:55:42.945Z,7.53
2023-01-31T13:58:17.390Z,8.66
2023-01-31T14:00:46.871Z,8.93
2023-01-31T14:03:20.155Z,8.53
2023-01-31T14:05:53.983Z,8.17
2023-01-31T14:08:38.063Z,7.21
2023-01-31T14:11:36.010Z,7.55
2023-01-31T14:14:31.853Z,7.38
2023-01-31T14:17:02.933Z,7.68
2023-01-31T14:20:04.926Z,7.35
2023-01-31T14:22:42.573Z,7.68
2023-01-31T14:25:20.900Z,7.58
2023-01-31T14:28:03.353Z,7.66
2023-01-31T14:30:38.169Z,7.52
2023-01-31T14:33:09.680Z,7.90
2023-01-31T14:35:48.412Z,8.64
2023-01-31T14:38:23.541Z,8.41
2023-01-31T14:40:59.854Z,8.79
2023-01-31T14:43:38.651Z,8.12
2023-01-31T14:46:18.930Z,7.73
2023-01-31T14:49:23.500Z,7.71
2023-01-31T14:52:10.346Z,8.65
2023-01-31T14:54:58.196Z,7.03
2023-01-31T14:57:29.657Z,7.15
2023-01-31T14:59:59.802Z,7.51
2023-01-31T15:02:47.052Z,7.79
2023-01-31T15:05:17.788Z,7.54
2023-01-31T15:08:27.732Z,7.57
2023-01-31T15:11:04.210Z,7.75
2023-01-31T15:13:41.718Z,8.35
2023-01-31T15:16:16.202Z,8.10
2023-01-31T15:18:49.365Z,7.58
2023-01-31T15:21:23.229Z,7.54
2023-01-31T15:23:52.739Z,7.21
2023-01-31T15:26:27.938Z,7.52
2023-01-31T15:28:57.533Z,7.48
2023-01-31T15:31:31.111Z,8.29
2023-01-31T15:34:01.903Z,7.59
2023-01-31T15:36:34.057Z,7.59
2023-01-31T15:39:22.029Z,7.18
2023-01-31T15:41:56.710Z,7.58
2023-01-31T15:44:26.606Z,7.14
2023-01-31T15:46:56.824Z,7.88
2023-01-31T15:49:39.130Z,7.84
2023-01-31T15:52:34.834Z,7.53
2023-01-31T15:55:11.833Z,7.27
2023-01-31T15:57:44.533Z,7.43
2023-01-31T16:00:21.426Z,6.71
2023-01-31T16:02:49.678Z,6.27
2023-01-31T16:05:25.352Z,6.14
2023-01-31T16:07:54.578Z,6.53
2023-01-31T16:10:22.717Z,6.40
2023-01-31T16:12:54.020Z,6.93
2023-01-31T16:15:24.522Z,6.47
2023-01-31T16:17:56.015Z,6.45
2023-01-31T16:20:43.199Z,6.81
2023-01-31T16:23:25.840Z,6.76
2023-01-31T16:26:00.579Z,6.62
2023-01-31T16:28:41.938Z,6.41
2023-01-31T16:31:12.472Z,6.21
2023-01-31T16:33:41.916Z,6.15
2023-01-31T16:36:16.577Z,6.23
2023-01-31T16:38:57.269Z,6.25
2023-01-31T16:41:40.379Z,6.01
2023-01-31T16:44:16.677Z,6.21
2023-01-31T16:46:48.540Z,5.95
2023-01-31T16:49:26.029Z,6.33
2023-01-31T16:51:59.474Z,6.13
2023-01-31T16:54:32.269Z,6.04
2023-01-31T16:57:09.912Z,5.91
2023-01-31T16:59:47.237Z,6.15
2023-01-31T17:02:20.070Z,5.81
2023-01-31T17:04:51.787Z,6.01
2023-01-31T17:07:22.966Z,5.94
2023-01-31T17:09:55.166Z,5.96
2023-01-31T17:12:25.193Z,6.15
2023-01-31T17:15:00.162Z,6.02
2023-01-31T17:17:33.029Z,6.04
2023-01-31T17:20:07.834Z,6.05
2023-01-31T17:22:36.263Z,6.01
2023-01-31T17:25:04.257Z,6.32
2023-01-31T17:27:32.579Z,6.04
2023-01-31T17:30:03.417Z,6.42
2023-01-31T17:32:38.751Z,6.27
2023-01-31T17:35:18.705Z,6.49
2023-01-31T17:37:46.850Z,6.58
2023-01-31T17:40:18.989Z,6.12
2023-01-31T17:42:47.023Z,6.27
2023-01-31T17:45:18.881Z,6.04
2023-01-31T17:47:47.869Z,6.27
2023-01-31T17:50:17.107Z,6.12
2023-01-31T17:52:57.084Z,6.48
2023-01-31T17:55:28.205Z,6.33
2023-01-31T17:57:56.224Z,6.52
2023-01-31T18:00:28.952Z,6.41
2023-01-31T18:02:59.692Z,6.10
2023-01-31T18:05:38.324Z,6.24
2023-01-31T18:08:07.147Z,6.04
2023-01-31T18:10:36.335Z,6.31
2023-01-31T18:13:04.319Z,5.82
2023-01-31T18:15:36.267Z,6.04
2023-01-31T18:18:08.777Z,6.12
2023-01-31T18:20:39.319Z,6.17
2023-01-31T18:23:07.537Z,5.86
2023-01-31T18:25:37.967Z,5.53
2023-01-31T18:28:06.503Z,5.70
2023-01-31T18:30:35.803Z,5.79
2023-01-31T18:33:05.825Z,5.95
2023-01-31T18:35:36.569Z,5.98
2023-01-31T18:38:06.685Z,6.13
2023-01-31T18:40:36.056Z,6.25
2023-01-31T18:43:03.917Z,5.93
2023-01-31T18:45:31.785Z,5.72
2023-01-31T18:48:01.104Z,5.52
2023-01-31T18:50:31.546Z,3.78
2023-01-31T18:52:59.401Z,5.69
2023-01-31T18:55:32.363Z,5.59
2023-01-31T18:58:00.310Z,5.62
2023-01-31T19:00:28.695Z,5.51
2023-01-31T19:02:56.851Z,5.60
2023-01-31T19:05:28.800Z,5.18
2023-01-31T19:07:58.267Z,5.53
2023-01-31T19:10:27.451Z,5.69
2023-01-31T19:12:57.119Z,5.79
2023-01-31T19:15:27.752Z,5.75
2023-01-31T19:17:58.128Z,5.85
2023-01-31T19:20:26.695Z,5.73
2023-01-31T19:23:00.119Z,5.80
2023-01-31T19:25:28.223Z,6.38
2023-01-31T19:28:00.190Z,6.50
2023-01-31T19:30:29.960Z,5.99
2023-01-31T19:33:00.788Z,6.15
2023-01-31T19:35:31.017Z,6.46
2023-01-31T19:38:00.652Z,6.42
2023-01-31T19:40:30.577Z,6.37
2023-01-31T19:42:58.863Z,6.49
2023-01-31T19:45:29.540Z,6.59
2023-01-31T19:47:58.259Z,6.48
2023-01-31T19:50:31.683Z,6.65
2023-01-31T19:53:01.241Z,5.91
2023-01-31T19:55:29.681Z,5.84
2023-01-31T19:58:00.112Z,5.75
2023-01-31T20:00:28.471Z,5.68
2023-01-31T20:02:57.118Z,5.58
2023-01-31T20:05:25.151Z,5.69
2023-01-31T20:07:53.901Z,5.82
2023-01-31T20:10:24.084Z,5.79
2023-01-31T20:12:54.384Z,6.16
2023-01-31T20:15:22.167Z,5.36
2023-01-31T20:17:52.389Z,6.05
2023-01-31T20:20:26.975Z,5.94
2023-01-31T20:22:55.055Z,5.95
2023-01-31T20:25:26.350Z,5.86
2023-01-31T20:27:54.355Z,5.84
2023-01-31T20:30:23.463Z,5.84
2023-01-31T20:33:00.530Z,5.98
2023-01-31T20:35:28.503Z,5.77
2023-01-31T20:38:02.408Z,5.85
2023-01-31T20:40:31.688Z,5.94
2023-01-31T20:43:03.067Z,5.96
2023-01-31T20:45:36.245Z,5.68
2023-01-31T20:48:07.040Z,5.51
2023-01-31T20:50:36.487Z,5.80
2023-01-31T20:53:13.301Z,5.58
2023-01-31T20:55:43.277Z,5.90
2023-01-31T20:58:11.415Z,6.04
2023-01-31T21:00:39.396Z,5.03
2023-01-31T21:03:16.326Z,5.66
2023-01-31T21:05:46.692Z,5.86
2023-01-31T21:08:16.776Z,5.61
2023-01-31T21:10:50.406Z,5.68
2023-01-31T21:13:18.545Z,6.04
2023-01-31T21:15:55.186Z,6.09
2023-01-31T21:18:24.005Z,5.87
2023-01-31T21:21:01.386Z,6.42
2023-01-31T21:23:31.860Z,6.17
2023-01-31T21:26:06.444Z,5.64
2023-01-31T21:28:34.960Z,6.00
2023-01-31T21:31:04.819Z,6.07
2023-01-31T21:33:33.747Z,6.63
2023-01-31T21:36:24.718Z,6.82
2023-01-31T21:38:55.548Z,6.44
2023-01-31T21:41:42.279Z,6.66
2023-01-31T21:44:25.864Z,6.61
2023-01-31T21:46:53.658Z,6.31
2023-01-31T21:49:23.793Z,6.58
2023-01-31T21:51:51.684Z,6.59
2023-01-31T21:54:19.563Z,6.67
2023-01-31T21:56:49.895Z,6.65
2023-01-31T21:59:22.600Z,7.14
2023-01-31T22:01:52.127Z,6.91
2023-01-31T22:04:21.165Z,6.63
2023-01-31T22:06:53.492Z,6.61
2023-01-31T22:09:21.377Z,6.99
2023-01-31T22:11:52.928Z,6.83
2023-01-31T22:14:21.082Z,7.45
2023-01-31T22:16:50.126Z,7.22
2023-01-31T22:19:27.930Z,7.18
2023-01-31T22:21:57.025Z,6.64
2023-01-31T22:24:34.528Z,6.66
2023-01-31T22:27:06.449Z,6.49
2023-01-31T22:29:34.526Z,6.55
2023-01-31T22:32:22.823Z,7.09
2023-01-31T22:34:50.621Z,6.66
2023-01-31T22:37:19.278Z,6.34
2023-01-31T22:39:47.974Z,6.39
2023-01-31T22:42:18.310Z,7.32
2023-01-31T22:44:46.098Z,6.66
2023-01-31T22:47:14.160Z,7.24
2023-01-31T22:49:43.019Z,7.02
2023-01-31T22:52:10.816Z,6.68
2023-01-31T22:54:41.216Z,6.82
2023-01-31T22:57:09.023Z,6.71
2023-01-31T22:59:40.794Z,6.54
2023-01-31T23:02:11.256Z,6.55
2023-01-31T23:04:39.713Z,6.39
2023-01-31T23:07:10.727Z,7.17
2023-01-31T23:09:40.396Z,6.99
2023-01-31T23:12:10.172Z,7.21
2023-01-31T23:14:41.341Z,6.81
2023-01-31T23:17:28.715Z,7.14
2023-01-31T23:19:56.524Z,7.12
2023-01-31T23:22:28.617Z,6.73
2023-01-31T23:24:56.764Z,6.33
2023-01-31T23:27:24.740Z,6.30
2023-01-31T23:29:55.407Z,6.32
2023-01-31T23:32:27.646Z,6.07
2023-01-31T23:34:56.016Z,6.04
2023-01-31T23:37:24.314Z,6.48
2023-01-31T23:39:53.705Z,6.14
2023-01-31T23:42:22.619Z,6.17
2023-01-31T23:44:53.292Z,5.99
2023-01-31T23:47:26.934Z,5.73
2023-01-31T23:49:57.045Z,5.63
2023-01-31T23:52:26.619Z,5.29
2023-01-31T23:54:58.405Z,5.83
2023-01-31T23:57:26.312Z,5.74
2023-01-31T23:59:58.039Z,5.40
